sensor_id;sensor_type;location;lat;lon;timestamp;P1;durP1;ratioP1;P2;durP2;ratioP2
20002;SDS011;10162;41.600;23.806;2023-07-31T00:05:11;7.07;;;6.47;;
20002;SDS011;10162;41.600;23.806;2023-07-31T00:07:37;7.17;;;6.50;;
20002;SDS011;10162;41.600;23.806;2023-07-31T00:10:03;7.67;;;6.27;;
20002;SDS011;10162;41.600;23.806;2023-07-31T00:16:24;6.90;;;6.20;;
20002;SDS011;10162;41.600;23.806;2023-07-31T00:18:50;7.03;;;6.40;;
20002;SDS011;10162;41.600;23.806;2023-07-31T00:25:36;7.43;;;6.63;;
20002;SDS011;10162;41.600;23.806;2023-07-31T00:28:02;8.43;;;7.27;;
20002;SDS011;10162;41.600;23.806;2023-07-31T00:34:22;7.47;;;6.27;;
20002;SDS011;10162;41.600;23.806;2023-07-31T00:36:47;7.13;;;6.43;;
20002;SDS011;10162;41.600;23.806;2023-07-31T00:39:15;7.27;;;6.57;;
20002;SDS011;10162;41.600;23.806;2023-07-31T00:45:38;9.97;;;6.50;;
20002;SDS011;10162;41.600;23.806;2023-07-31T00:48:05;6.97;;;6.37;;
20002;SDS011;10162;41.600;23.806;2023-07-31T00:54:28;6.93;;;6.30;;
20002;SDS011;10162;41.600;23.806;2023-07-31T00:56:54;7.60;;;6.77;;
20002;SDS011;10162;41.600;23.806;2023-07-31T00:59:21;6.50;;;5.90;;
20002;SDS011;10162;41.600;23.806;2023-07-31T01:08:42;10.07;;;7.73;;
20002;SDS011;10162;41.600;23.806;2023-07-31T01:15:11;8.33;;;7.53;;
20002;SDS011;10162;41.600;23.806;2023-07-31T01:17:38;7.93;;;7.13;;
20002;SDS011;10162;41.600;23.806;2023-07-31T01:20:15;8.50;;;7.43;;
20002;SDS011;10162;41.600;23.806;2023-07-31T01:27:59;9.07;;;7.57;;
20002;SDS011;10162;41.600;23.806;2023-07-31T01:34:24;8.87;;;7.50;;
20002;SDS011;10162;41.600;23.806;2023-07-31T01:36:51;8.20;;;7.50;;
20002;SDS011;10162;41.600;23.806;2023-07-31T01:39:17;8.50;;;7.60;;
20002;SDS011;10162;41.600;23.806;2023-07-31T01:45:41;8.50;;;7.50;;
20002;SDS011;10162;41.600;23.806;2023-07-31T01:48:06;8.40;;;7.60;;
20002;SDS011;10162;41.600;23.806;2023-07-31T01:54:26;7.63;;;6.93;;
20002;SDS011;10162;41.600;23.806;2023-07-31T01:56:52;10.17;;;8.00;;
20002;SDS011;10162;41.600;23.806;2023-07-31T01:59:18;10.63;;;7.93;;
20002;SDS011;10162;41.600;23.806;2023-07-31T02:05:44;9.40;;;8.47;;
20002;SDS011;10162;41.600;23.806;2023-07-31T02:08:11;10.33;;;8.00;;
20002;SDS011;10162;41.600;23.806;2023-07-31T02:13:22;9.00;;;8.10;;
20002;SDS011;10162;41.600;23.806;2023-07-31T02:15:48;9.30;;;8.40;;
20002;SDS011;10162;41.600;23.806;2023-07-31T02:18:14;10.50;;;8.83;;
20002;SDS011;10162;41.600;23.806;2023-07-31T02:24:34;10.60;;;8.97;;
20002;SDS011;10162;41.600;23.806;2023-07-31T02:27:00;9.30;;;8.47;;
20002;SDS011;10162;41.600;23.806;2023-07-31T02:29:25;9.07;;;8.17;;
20002;SDS011;10162;41.600;23.806;2023-07-31T02:35:45;9.27;;;8.40;;
20002;SDS011;10162;41.600;23.806;2023-07-31T02:38:11;8.97;;;8.07;;
20002;SDS011;10162;41.600;23.806;2023-07-31T02:43:32;8.17;;;7.37;;
20002;SDS011;10162;41.600;23.806;2023-07-31T02:45:59;9.00;;;7.83;;
20002;SDS011;10162;41.600;23.806;2023-07-31T02:48:25;9.63;;;8.70;;
20002;SDS011;10162;41.600;23.806;2023-07-31T02:54:45;11.93;;;9.23;;
20002;SDS011;10162;41.600;23.806;2023-07-31T02:57:12;9.50;;;8.50;;
20002;SDS011;10162;41.600;23.806;2023-07-31T02:59:38;10.80;;;8.73;;
20002;SDS011;10162;41.600;23.806;2023-07-31T03:05:58;10.83;;;9.60;;
20002;SDS011;10162;41.600;23.806;2023-07-31T03:08:24;9.80;;;8.83;;
20002;SDS011;10162;41.600;23.806;2023-07-31T03:14:44;9.47;;;7.93;;
20002;SDS011;10162;41.600;23.806;2023-07-31T03:17:11;9.53;;;8.63;;
20002;SDS011;10162;41.600;23.806;2023-07-31T03:19:37;9.90;;;8.90;;
20002;SDS011;10162;41.600;23.806;2023-07-31T03:29:12;9.97;;;8.90;;
20002;SDS011;10162;41.600;23.806;2023-07-31T03:35:32;10.00;;;8.97;;
20002;SDS011;10162;41.600;23.806;2023-07-31T03:37:58;10.60;;;9.37;;
20002;SDS011;10162;41.600;23.806;2023-07-31T03:44:17;9.30;;;8.40;;
20002;SDS011;10162;41.600;23.806;2023-07-31T03:46:42;10.77;;;9.77;;
20002;SDS011;10162;41.600;23.806;2023-07-31T03:49:08;9.67;;;8.73;;
20002;SDS011;10162;41.600;23.806;2023-07-31T03:55:32;9.80;;;8.90;;
20002;SDS011;10162;41.600;23.806;2023-07-31T03:57:58;10.83;;;9.23;;
20002;SDS011;10162;41.600;23.806;2023-07-31T04:04:19;9.70;;;8.80;;
20002;SDS011;10162;41.600;23.806;2023-07-31T04:06:44;9.77;;;8.83;;
20002;SDS011;10162;41.600;23.806;2023-07-31T04:09:10;9.70;;;8.77;;
20002;SDS011;10162;41.600;23.806;2023-07-31T04:15:30;11.67;;;10.23;;
20002;SDS011;10162;41.600;23.806;2023-07-31T04:17:55;11.53;;;10.33;;
20002;SDS011;10162;41.600;23.806;2023-07-31T04:20:21;11.33;;;10.00;;
20002;SDS011;10162;41.600;23.806;2023-07-31T04:22:49;10.67;;;9.57;;
20002;SDS011;10162;41.600;23.806;2023-07-31T04:25:15;10.80;;;9.67;;
20002;SDS011;10162;41.600;23.806;2023-07-31T04:27:40;10.37;;;9.27;;
20002;SDS011;10162;41.600;23.806;2023-07-31T04:30:06;10.47;;;9.43;;
20002;SDS011;10162;41.600;23.806;2023-07-31T04:36:28;9.70;;;8.70;;
20002;SDS011;10162;41.600;23.806;2023-07-31T04:38:53;9.73;;;8.83;;
20002;SDS011;10162;41.600;23.806;2023-07-31T04:44:30;10.90;;;9.80;;
20002;SDS011;10162;41.600;23.806;2023-07-31T04:46:56;9.80;;;8.77;;
20002;SDS011;10162;41.600;23.806;2023-07-31T04:49:22;9.17;;;8.37;;
20002;SDS011;10162;41.600;23.806;2023-07-31T04:55:42;10.33;;;8.20;;
20002;SDS011;10162;41.600;23.806;2023-07-31T04:58:09;8.87;;;8.00;;
20002;SDS011;10162;41.600;23.806;2023-07-31T05:04:29;9.73;;;8.70;;
20002;SDS011;10162;41.600;23.806;2023-07-31T05:06:54;10.43;;;9.33;;
20002;SDS011;10162;41.600;23.806;2023-07-31T05:09:20;9.97;;;8.97;;
20002;SDS011;10162;41.600;23.806;2023-07-31T05:14:56;9.20;;;8.30;;
20002;SDS011;10162;41.600;23.806;2023-07-31T05:17:22;9.00;;;8.13;;
20002;SDS011;10162;41.600;23.806;2023-07-31T05:19:48;8.70;;;7.93;;
20002;SDS011;10162;41.600;23.806;2023-07-31T05:26:08;8.93;;;8.03;;
20002;SDS011;10162;41.600;23.806;2023-07-31T05:28:35;8.47;;;7.70;;
20002;SDS011;10162;41.600;23.806;2023-07-31T05:34:55;14.07;;;10.10;;
20002;SDS011;10162;41.600;23.806;2023-07-31T05:37:22;11.77;;;9.17;;
20002;SDS011;10162;41.600;23.806;2023-07-31T05:39:48;8.55;;;7.38;;
20002;SDS011;10162;41.600;23.806;2023-07-31T05:46:08;8.88;;;8.02;;
20002;SDS011;10162;41.600;23.806;2023-07-31T05:48:36;8.48;;;7.68;;
20002;SDS011;10162;41.600;23.806;2023-07-31T05:54:56;8.20;;;7.40;;
20002;SDS011;10162;41.600;23.806;2023-07-31T05:57:21;8.20;;;7.40;;
20002;SDS011;10162;41.600;23.806;2023-07-31T05:59:47;9.18;;;7.75;;
20002;SDS011;10162;41.600;23.806;2023-07-31T06:06:09;9.15;;;8.15;;
20002;SDS011;10162;41.600;23.806;2023-07-31T06:08:35;15.77;;;8.27;;
20002;SDS011;10162;41.600;23.806;2023-07-31T06:14:58;8.90;;;8.00;;
20002;SDS011;10162;41.600;23.806;2023-07-31T06:17:26;8.20;;;7.40;;
20002;SDS011;10162;41.600;23.806;2023-07-31T06:19:52;9.95;;;9.05;;
20002;SDS011;10162;41.600;23.806;2023-07-31T06:26:12;9.30;;;8.40;;
20002;SDS011;10162;41.600;23.806;2023-07-31T06:28:37;9.05;;;8.25;;
20002;SDS011;10162;41.600;23.806;2023-07-31T06:34:03;8.20;;;7.50;;
20002;SDS011;10162;41.600;23.806;2023-07-31T06:36:29;11.95;;;8.02;;
20002;SDS011;10162;41.600;23.806;2023-07-31T06:38:54;11.93;;;7.53;;
20002;SDS011;10162;41.600;23.806;2023-07-31T06:45:14;7.68;;;6.78;;
20002;SDS011;10162;41.600;23.806;2023-07-31T06:47:39;7.88;;;7.05;;
20002;SDS011;10162;41.600;23.806;2023-07-31T06:50:05;7.95;;;7.25;;
20002;SDS011;10162;41.600;23.806;2023-07-31T06:56:28;9.38;;;6.82;;
20002;SDS011;10162;41.600;23.806;2023-07-31T06:58:54;8.63;;;7.35;;
20002;SDS011;10162;41.600;23.806;2023-07-31T07:04:11;9.07;;;8.13;;
20002;SDS011;10162;41.600;23.806;2023-07-31T07:06:37;9.43;;;8.30;;
20002;SDS011;10162;41.600;23.806;2023-07-31T07:09:04;8.77;;;7.68;;
20002;SDS011;10162;41.600;23.806;2023-07-31T07:14:33;8.93;;;8.18;;
20002;SDS011;10162;41.600;23.806;2023-07-31T07:16:59;7.18;;;6.47;;
20002;SDS011;10162;41.600;23.806;2023-07-31T07:19:24;8.32;;;7.43;;
20002;SDS011;10162;41.600;23.806;2023-07-31T07:24:39;7.63;;;6.93;;
20002;SDS011;10162;41.600;23.806;2023-07-31T07:27:04;7.30;;;6.68;;
20002;SDS011;10162;41.600;23.806;2023-07-31T07:29:31;7.47;;;6.78;;
20002;SDS011;10162;41.600;23.806;2023-07-31T07:35:53;7.10;;;6.50;;
20002;SDS011;10162;41.600;23.806;2023-07-31T07:38:19;7.05;;;6.40;;
20002;SDS011;10162;41.600;23.806;2023-07-31T07:44:38;7.93;;;5.40;;
20002;SDS011;10162;41.600;23.806;2023-07-31T07:47:04;5.78;;;5.32;;
20002;SDS011;10162;41.600;23.806;2023-07-31T07:49:31;5.90;;;5.40;;
20002;SDS011;10162;41.600;23.806;2023-07-31T07:55:10;5.05;;;4.38;;
20002;SDS011;10162;41.600;23.806;2023-07-31T07:57:35;4.80;;;4.40;;
20002;SDS011;10162;41.600;23.806;2023-07-31T08:00:01;4.63;;;4.20;;
20002;SDS011;10162;41.600;23.806;2023-07-31T08:05:09;4.97;;;4.57;;
20002;SDS011;10162;41.600;23.806;2023-07-31T08:07:34;4.60;;;4.20;;
20002;SDS011;10162;41.600;23.806;2023-07-31T08:10:01;4.68;;;4.28;;
20002;SDS011;10162;41.600;23.806;2023-07-31T08:12:33;5.05;;;4.65;;
20002;SDS011;10162;41.600;23.806;2023-07-31T08:14:59;5.05;;;4.55;;
20002;SDS011;10162;41.600;23.806;2023-07-31T08:17:25;4.55;;;4.15;;
20002;SDS011;10162;41.600;23.806;2023-07-31T08:19:51;4.95;;;4.45;;
20002;SDS011;10162;41.600;23.806;2023-07-31T08:26:15;4.35;;;4.05;;
20002;SDS011;10162;41.600;23.806;2023-07-31T08:28:43;4.10;;;3.80;;
20002;SDS011;10162;41.600;23.806;2023-07-31T08:35:04;4.10;;;3.70;;
20002;SDS011;10162;41.600;23.806;2023-07-31T08:37:30;5.63;;;4.20;;
20002;SDS011;10162;41.600;23.806;2023-07-31T08:39:56;4.32;;;3.92;;
20002;SDS011;10162;41.600;23.806;2023-07-31T08:45:37;4.28;;;3.92;;
20002;SDS011;10162;41.600;23.806;2023-07-31T08:48:04;4.18;;;3.88;;
20002;SDS011;10162;41.600;23.806;2023-07-31T08:53:52;5.10;;;4.60;;
20002;SDS011;10162;41.600;23.806;2023-07-31T08:56:19;4.75;;;4.35;;
20002;SDS011;10162;41.600;23.806;2023-07-31T08:58:45;5.50;;;4.95;;
20002;SDS011;10162;41.600;23.806;2023-07-31T09:05:07;5.40;;;4.60;;
20002;SDS011;10162;41.600;23.806;2023-07-31T09:07:34;5.75;;;5.20;;
20002;SDS011;10162;41.600;23.806;2023-07-31T09:10:03;6.40;;;4.72;;
20002;SDS011;10162;41.600;23.806;2023-07-31T09:15:00;5.05;;;4.53;;
20002;SDS011;10162;41.600;23.806;2023-07-31T09:17:35;5.75;;;4.93;;
20002;SDS011;10162;41.600;23.806;2023-07-31T09:20:15;5.35;;;4.55;;
20002;SDS011;10162;41.600;23.806;2023-07-31T09:22:46;5.68;;;4.90;;
20002;SDS011;10162;41.600;23.806;2023-07-31T09:25:20;5.45;;;4.95;;
20002;SDS011;10162;41.600;23.806;2023-07-31T09:27:54;4.97;;;4.57;;
20002;SDS011;10162;41.600;23.806;2023-07-31T09:30:21;6.95;;;5.05;;
20002;SDS011;10162;41.600;23.806;2023-07-31T09:32:47;5.60;;;5.00;;
20002;SDS011;10162;41.600;23.806;2023-07-31T09:35:21;5.40;;;4.90;;
20002;SDS011;10162;41.600;23.806;2023-07-31T09:37:57;5.50;;;5.03;;
20002;SDS011;10162;41.600;23.806;2023-07-31T09:40:34;6.72;;;6.00;;
20002;SDS011;10162;41.600;23.806;2023-07-31T09:43:02;6.05;;;5.38;;
20002;SDS011;10162;41.600;23.806;2023-07-31T09:45:30;6.25;;;5.75;;
20002;SDS011;10162;41.600;23.806;2023-07-31T09:48:00;6.90;;;5.65;;
20002;SDS011;10162;41.600;23.806;2023-07-31T09:50:37;5.88;;;5.38;;
20002;SDS011;10162;41.600;23.806;2023-07-31T09:53:05;5.95;;;5.45;;
20002;SDS011;10162;41.600;23.806;2023-07-31T09:55:31;7.20;;;6.20;;
20002;SDS011;10162;41.600;23.806;2023-07-31T09:58:01;6.45;;;5.85;;
20002;SDS011;10162;41.600;23.806;2023-07-31T10:00:38;6.10;;;5.60;;
20002;SDS011;10162;41.600;23.806;2023-07-31T10:03:05;6.40;;;5.90;;
20002;SDS011;10162;41.600;23.806;2023-07-31T10:05:36;7.00;;;6.30;;
20002;SDS011;10162;41.600;23.806;2023-07-31T10:08:05;6.65;;;6.07;;
20002;SDS011;10162;41.600;23.806;2023-07-31T10:10:52;7.18;;;6.35;;
20002;SDS011;10162;41.600;23.806;2023-07-31T10:13:20;7.05;;;6.45;;
20002;SDS011;10162;41.600;23.806;2023-07-31T10:15:47;6.30;;;5.70;;
20002;SDS011;10162;41.600;23.806;2023-07-31T10:18:14;6.47;;;5.88;;
20002;SDS011;10162;41.600;23.806;2023-07-31T10:23:22;6.15;;;5.65;;
20002;SDS011;10162;41.600;23.806;2023-07-31T10:25:51;6.15;;;5.65;;
20002;SDS011;10162;41.600;23.806;2023-07-31T10:28:19;6.55;;;5.95;;
20002;SDS011;10162;41.600;23.806;2023-07-31T10:33:47;6.68;;;6.03;;
20002;SDS011;10162;41.600;23.806;2023-07-31T10:36:18;6.45;;;5.85;;
20002;SDS011;10162;41.600;23.806;2023-07-31T10:38:48;6.93;;;6.22;;
20002;SDS011;10162;41.600;23.806;2023-07-31T10:41:29;7.18;;;6.47;;
20002;SDS011;10162;41.600;23.806;2023-07-31T10:43:59;6.55;;;6.03;;
20002;SDS011;10162;41.600;23.806;2023-07-31T10:46:25;7.00;;;6.35;;
20002;SDS011;10162;41.600;23.806;2023-07-31T10:48:58;6.82;;;6.22;;
20002;SDS011;10162;41.600;23.806;2023-07-31T10:54:39;7.00;;;6.40;;
20002;SDS011;10162;41.600;23.806;2023-07-31T10:57:18;7.25;;;6.65;;
20002;SDS011;10162;41.600;23.806;2023-07-31T10:59:48;7.55;;;6.88;;
20002;SDS011;10162;41.600;23.806;2023-07-31T11:06:37;7.15;;;6.45;;
20002;SDS011;10162;41.600;23.806;2023-07-31T11:09:03;6.95;;;6.25;;
20002;SDS011;10162;41.600;23.806;2023-07-31T11:14:27;7.85;;;7.15;;
20002;SDS011;10162;41.600;23.806;2023-07-31T11:16:52;7.40;;;6.80;;
20002;SDS011;10162;41.600;23.806;2023-07-31T11:19:24;8.70;;;7.82;;
20002;SDS011;10162;41.600;23.806;2023-07-31T11:24:52;8.95;;;8.05;;
20002;SDS011;10162;41.600;23.806;2023-07-31T11:27:18;8.88;;;8.05;;
20002;SDS011;10162;41.600;23.806;2023-07-31T11:29:43;8.38;;;7.68;;
20002;SDS011;10162;41.600;23.806;2023-07-31T11:36:04;9.15;;;7.45;;
20002;SDS011;10162;41.600;23.806;2023-07-31T11:38:30;8.18;;;7.38;;
20002;SDS011;10162;41.600;23.806;2023-07-31T11:44:52;9.70;;;7.68;;
20002;SDS011;10162;41.600;23.806;2023-07-31T11:47:17;7.47;;;6.78;;
20002;SDS011;10162;41.600;23.806;2023-07-31T11:49:43;7.32;;;6.63;;
20002;SDS011;10162;41.600;23.806;2023-07-31T11:56:04;7.32;;;6.63;;
20002;SDS011;10162;41.600;23.806;2023-07-31T11:58:34;7.60;;;6.68;;
20002;SDS011;10162;41.600;23.806;2023-07-31T12:01:18;8.00;;;7.20;;
20002;SDS011;10162;41.600;23.806;2023-07-31T12:03:46;10.18;;;7.72;;
20002;SDS011;10162;41.600;23.806;2023-07-31T12:06:15;9.02;;;7.68;;
20002;SDS011;10162;41.600;23.806;2023-07-31T12:08:41;7.72;;;7.05;;
20002;SDS011;10162;41.600;23.806;2023-07-31T12:14:21;8.63;;;7.82;;
20002;SDS011;10162;41.600;23.806;2023-07-31T12:16:56;8.82;;;7.93;;
20002;SDS011;10162;41.600;23.806;2023-07-31T12:19:27;12.30;;;8.63;;
20002;SDS011;10162;41.600;23.806;2023-07-31T12:21:58;11.05;;;8.18;;
20002;SDS011;10162;41.600;23.806;2023-07-31T12:24:28;18.52;;;9.23;;
20002;SDS011;10162;41.600;23.806;2023-07-31T12:29:51;11.10;;;9.05;;
20002;SDS011;10162;41.600;23.806;2023-07-31T12:35:01;9.98;;;8.52;;
20002;SDS011;10162;41.600;23.806;2023-07-31T12:37:32;12.35;;;9.63;;
20002;SDS011;10162;41.600;23.806;2023-07-31T12:39:58;12.30;;;9.18;;
20002;SDS011;10162;41.600;23.806;2023-07-31T12:46:22;11.95;;;10.65;;
20002;SDS011;10162;41.600;23.806;2023-07-31T12:48:48;16.40;;;11.40;;
20002;SDS011;10162;41.600;23.806;2023-07-31T12:55:09;11.88;;;10.18;;
20002;SDS011;10162;41.600;23.806;2023-07-31T12:57:38;12.85;;;11.15;;
20002;SDS011;10162;41.600;23.806;2023-07-31T13:00:05;14.45;;;10.88;;
20002;SDS011;10162;41.600;23.806;2023-07-31T13:30:38;12.18;;;10.95;;
20002;SDS011;10162;41.600;23.806;2023-07-31T13:36:58;11.98;;;10.70;;
20002;SDS011;10162;41.600;23.806;2023-07-31T13:39:26;12.50;;;11.20;;
20002;SDS011;10162;41.600;23.806;2023-07-31T13:45:45;10.20;;;8.48;;
20002;SDS011;10162;41.600;23.806;2023-07-31T13:48:11;10.10;;;8.77;;
20002;SDS011;10162;41.600;23.806;2023-07-31T13:50:37;10.00;;;9.00;;
20002;SDS011;10162;41.600;23.806;2023-07-31T13:56:57;11.18;;;9.38;;
20002;SDS011;10162;41.600;23.806;2023-07-31T13:59:22;11.73;;;9.43;;
20002;SDS011;10162;41.600;23.806;2023-07-31T14:05:42;9.95;;;8.77;;
20002;SDS011;10162;41.600;23.806;2023-07-31T14:08:08;11.23;;;8.95;;
20002;SDS011;10162;41.600;23.806;2023-07-31T14:10:34;10.70;;;8.88;;
20002;SDS011;10162;41.600;23.806;2023-07-31T14:16:55;11.15;;;9.75;;
20002;SDS011;10162;41.600;23.806;2023-07-31T14:19:23;10.75;;;9.65;;
20002;SDS011;10162;41.600;23.806;2023-07-31T14:25:43;11.38;;;9.70;;
20002;SDS011;10162;41.600;23.806;2023-07-31T14:28:09;8.65;;;7.45;;
20002;SDS011;10162;41.600;23.806;2023-07-31T14:30:35;9.07;;;7.20;;
20002;SDS011;10162;41.600;23.806;2023-07-31T14:36:57;8.50;;;7.05;;
20002;SDS011;10162;41.600;23.806;2023-07-31T14:39:22;7.43;;;6.72;;
20002;SDS011;10162;41.600;23.806;2023-07-31T14:45:42;14.90;;;8.02;;
20002;SDS011;10162;41.600;23.806;2023-07-31T14:48:08;9.85;;;8.63;;
20002;SDS011;10162;41.600;23.806;2023-07-31T14:50:34;8.15;;;7.15;;
20002;SDS011;10162;41.600;23.806;2023-07-31T14:56:53;8.48;;;7.45;;
20002;SDS011;10162;41.600;23.806;2023-07-31T14:59:19;14.80;;;7.60;;
20002;SDS011;10162;41.600;23.806;2023-07-31T15:05:38;8.48;;;7.63;;
20002;SDS011;10162;41.600;23.806;2023-07-31T15:08:04;8.63;;;7.70;;
20002;SDS011;10162;41.600;23.806;2023-07-31T15:10:30;8.35;;;7.45;;
20002;SDS011;10162;41.600;23.806;2023-07-31T15:16:50;8.38;;;7.53;;
20002;SDS011;10162;41.600;23.806;2023-07-31T15:19:16;8.43;;;7.60;;
20002;SDS011;10162;41.600;23.806;2023-07-31T15:25:35;9.07;;;7.28;;
20002;SDS011;10162;41.600;23.806;2023-07-31T15:28:01;7.32;;;6.63;;
20002;SDS011;10162;41.600;23.806;2023-07-31T15:30:27;7.95;;;6.85;;
20002;SDS011;10162;41.600;23.806;2023-07-31T15:36:49;9.27;;;7.00;;
20002;SDS011;10162;41.600;23.806;2023-07-31T15:39:15;7.07;;;6.35;;
20002;SDS011;10162;41.600;23.806;2023-07-31T15:44:45;6.70;;;6.10;;
20002;SDS011;10162;41.600;23.806;2023-07-31T15:47:11;7.50;;;6.70;;
20002;SDS011;10162;41.600;23.806;2023-07-31T15:49:37;7.95;;;6.72;;
20002;SDS011;10162;41.600;23.806;2023-07-31T15:52:05;7.82;;;7.13;;
20002;SDS011;10162;41.600;23.806;2023-07-31T15:54:32;7.20;;;6.50;;
20002;SDS011;10162;41.600;23.806;2023-07-31T15:56:58;8.30;;;6.53;;
20002;SDS011;10162;41.600;23.806;2023-07-31T15:59:24;8.70;;;6.95;;
20002;SDS011;10162;41.600;23.806;2023-07-31T16:04:18;7.82;;;7.03;;
20002;SDS011;10162;41.600;23.806;2023-07-31T16:06:44;7.55;;;6.68;;
20002;SDS011;10162;41.600;23.806;2023-07-31T16:09:11;9.45;;;6.97;;
20002;SDS011;10162;41.600;23.806;2023-07-31T16:11:38;8.80;;;7.20;;
20002;SDS011;10162;41.600;23.806;2023-07-31T16:14:04;7.72;;;6.50;;
20002;SDS011;10162;41.600;23.806;2023-07-31T16:16:30;7.57;;;6.80;;
20002;SDS011;10162;41.600;23.806;2023-07-31T16:18:58;8.38;;;6.88;;
20002;SDS011;10162;41.600;23.806;2023-07-31T16:21:37;7.70;;;6.82;;
20002;SDS011;10162;41.600;23.806;2023-07-31T16:24:04;7.55;;;6.80;;
20002;SDS011;10162;41.600;23.806;2023-07-31T16:26:30;9.82;;;7.95;;
20002;SDS011;10162;41.600;23.806;2023-07-31T16:28:57;9.02;;;7.40;;
20002;SDS011;10162;41.600;23.806;2023-07-31T16:34:17;9.23;;;7.95;;
20002;SDS011;10162;41.600;23.806;2023-07-31T16:36:43;9.35;;;7.40;;
20002;SDS011;10162;41.600;23.806;2023-07-31T16:39:09;8.00;;;6.63;;
20002;SDS011;10162;41.600;23.806;2023-07-31T16:44:08;11.43;;;7.18;;
20002;SDS011;10162;41.600;23.806;2023-07-31T16:46:33;8.52;;;7.63;;
20002;SDS011;10162;41.600;23.806;2023-07-31T16:48:59;7.88;;;7.07;;
20002;SDS011;10162;41.600;23.806;2023-07-31T16:55:19;8.93;;;6.85;;
20002;SDS011;10162;41.600;23.806;2023-07-31T16:57:45;8.63;;;7.65;;
20002;SDS011;10162;41.600;23.806;2023-07-31T17:00:11;8.13;;;7.32;;
20002;SDS011;10162;41.600;23.806;2023-07-31T17:02:42;8.02;;;7.18;;
20002;SDS011;10162;41.600;23.806;2023-07-31T17:05:08;8.00;;;7.20;;
20002;SDS011;10162;41.600;23.806;2023-07-31T17:07:34;8.20;;;7.40;;
20002;SDS011;10162;41.600;23.806;2023-07-31T17:10:00;9.45;;;8.05;;
20002;SDS011;10162;41.600;23.806;2023-07-31T17:14:54;7.82;;;6.78;;
20002;SDS011;10162;41.600;23.806;2023-07-31T17:17:20;8.50;;;7.70;;
20002;SDS011;10162;41.600;23.806;2023-07-31T17:19:49;10.55;;;7.82;;
20002;SDS011;10162;41.600;23.806;2023-07-31T17:24:47;8.27;;;7.37;;
20002;SDS011;10162;41.600;23.806;2023-07-31T17:27:12;11.73;;;8.32;;
20002;SDS011;10162;41.600;23.806;2023-07-31T17:29:39;11.63;;;7.97;;
20002;SDS011;10162;41.600;23.806;2023-07-31T17:32:12;11.15;;;7.78;;
20002;SDS011;10162;41.600;23.806;2023-07-31T17:34:39;10.10;;;8.20;;
20002;SDS011;10162;41.600;23.806;2023-07-31T17:37:05;8.23;;;7.10;;
20002;SDS011;10162;41.600;23.806;2023-07-31T17:39:31;8.63;;;7.50;;
20002;SDS011;10162;41.600;23.806;2023-07-31T17:44:31;9.57;;;8.33;;
20002;SDS011;10162;41.600;23.806;2023-07-31T17:46:56;9.30;;;8.40;;
20002;SDS011;10162;41.600;23.806;2023-07-31T17:49:24;8.27;;;7.47;;
20002;SDS011;10162;41.600;23.806;2023-07-31T17:51:55;8.80;;;7.60;;
20002;SDS011;10162;41.600;23.806;2023-07-31T17:54:21;11.17;;;8.50;;
20002;SDS011;10162;41.600;23.806;2023-07-31T17:56:47;10.57;;;7.90;;
20002;SDS011;10162;41.600;23.806;2023-07-31T17:59:13;8.70;;;7.73;;
20002;SDS011;10162;41.600;23.806;2023-07-31T18:04:40;7.93;;;7.17;;
20002;SDS011;10162;41.600;23.806;2023-07-31T18:07:05;10.77;;;7.90;;
20002;SDS011;10162;41.600;23.806;2023-07-31T18:09:32;9.00;;;7.57;;
20002;SDS011;10162;41.600;23.806;2023-07-31T18:15:16;9.70;;;7.33;;
20002;SDS011;10162;41.600;23.806;2023-07-31T18:17:41;10.70;;;7.50;;
20002;SDS011;10162;41.600;23.806;2023-07-31T18:20:07;8.57;;;7.50;;
20002;SDS011;10162;41.600;23.806;2023-07-31T18:22:46;10.23;;;7.90;;
20002;SDS011;10162;41.600;23.806;2023-07-31T18:25:13;8.03;;;7.23;;
20002;SDS011;10162;41.600;23.806;2023-07-31T18:27:38;8.60;;;7.77;;
20002;SDS011;10162;41.600;23.806;2023-07-31T18:30:05;8.50;;;7.57;;
20002;SDS011;10162;41.600;23.806;2023-07-31T18:35:21;9.90;;;7.60;;
20002;SDS011;10162;41.600;23.806;2023-07-31T18:37:47;10.83;;;7.57;;
20002;SDS011;10162;41.600;23.806;2023-07-31T18:40:13;11.17;;;7.70;;
20002;SDS011;10162;41.600;23.806;2023-07-31T18:42:46;8.50;;;7.60;;
20002;SDS011;10162;41.600;23.806;2023-07-31T18:45:14;8.83;;;7.33;;
20002;SDS011;10162;41.600;23.806;2023-07-31T18:47:40;9.53;;;8.53;;
20002;SDS011;10162;41.600;23.806;2023-07-31T18:50:06;7.80;;;7.00;;
20002;SDS011;10162;41.600;23.806;2023-07-31T18:56:26;8.67;;;7.30;;
20002;SDS011;10162;41.600;23.806;2023-07-31T18:58:52;8.73;;;7.83;;
20002;SDS011;10162;41.600;23.806;2023-07-31T19:04:37;8.47;;;7.50;;
20002;SDS011;10162;41.600;23.806;2023-07-31T19:07:03;8.83;;;7.80;;
20002;SDS011;10162;41.600;23.806;2023-07-31T19:09:31;10.67;;;7.90;;
20002;SDS011;10162;41.600;23.806;2023-07-31T19:15:21;9.63;;;7.17;;
20002;SDS011;10162;41.600;23.806;2023-07-31T19:17:47;8.40;;;7.13;;
20002;SDS011;10162;41.600;23.806;2023-07-31T19:20:15;7.87;;;7.07;;
20002;SDS011;10162;41.600;23.806;2023-07-31T19:22:41;7.73;;;6.93;;
20002;SDS011;10162;41.600;23.806;2023-07-31T19:25:08;8.37;;;6.93;;
20002;SDS011;10162;41.600;23.806;2023-07-31T19:27:34;8.07;;;7.27;;
20002;SDS011;10162;41.600;23.806;2023-07-31T19:30:00;8.00;;;6.23;;
20002;SDS011;10162;41.600;23.806;2023-07-31T19:32:28;8.50;;;7.03;;
20002;SDS011;10162;41.600;23.806;2023-07-31T19:34:54;8.57;;;6.50;;
20002;SDS011;10162;41.600;23.806;2023-07-31T19:37:19;7.20;;;6.50;;
20002;SDS011;10162;41.600;23.806;2023-07-31T19:39:47;8.13;;;6.80;;
20002;SDS011;10162;41.600;23.806;2023-07-31T19:42:13;7.33;;;6.37;;
20002;SDS011;10162;41.600;23.806;2023-07-31T19:44:40;7.60;;;6.90;;
20002;SDS011;10162;41.600;23.806;2023-07-31T19:47:05;7.40;;;6.60;;
20002;SDS011;10162;41.600;23.806;2023-07-31T19:49:31;7.20;;;6.07;;
20002;SDS011;10162;41.600;23.806;2023-07-31T19:51:57;7.07;;;6.37;;
20002;SDS011;10162;41.600;23.806;2023-07-31T19:54:24;7.60;;;6.80;;
20002;SDS011;10162;41.600;23.806;2023-07-31T19:56:50;9.37;;;6.90;;
20002;SDS011;10162;41.600;23.806;2023-07-31T19:59:17;7.73;;;6.60;;
20002;SDS011;10162;41.600;23.806;2023-07-31T20:01:44;7.60;;;6.17;;
20002;SDS011;10162;41.600;23.806;2023-07-31T20:04:09;8.07;;;7.27;;
20002;SDS011;10162;41.600;23.806;2023-07-31T20:06:35;8.10;;;7.00;;
20002;SDS011;10162;41.600;23.806;2023-07-31T20:09:01;9.07;;;7.13;;
20002;SDS011;10162;41.600;23.806;2023-07-31T20:11:30;6.73;;;6.03;;
20002;SDS011;10162;41.600;23.806;2023-07-31T20:13:56;8.17;;;6.70;;
20002;SDS011;10162;41.600;23.806;2023-07-31T20:16:22;5.87;;;5.30;;
20002;SDS011;10162;41.600;23.806;2023-07-31T20:18:48;7.87;;;6.00;;
20002;SDS011;10162;41.600;23.806;2023-07-31T20:21:16;6.90;;;6.10;;
20002;SDS011;10162;41.600;23.806;2023-07-31T20:23:44;7.27;;;6.30;;
20002;SDS011;10162;41.600;23.806;2023-07-31T20:26:10;6.57;;;5.80;;
20002;SDS011;10162;41.600;23.806;2023-07-31T20:28:36;6.87;;;6.10;;
20002;SDS011;10162;41.600;23.806;2023-07-31T20:31:03;9.73;;;6.33;;
20002;SDS011;10162;41.600;23.806;2023-07-31T20:33:32;8.73;;;7.00;;
20002;SDS011;10162;41.600;23.806;2023-07-31T20:35:58;8.97;;;6.23;;
20002;SDS011;10162;41.600;23.806;2023-07-31T20:38:24;10.13;;;7.27;;
20002;SDS011;10162;41.600;23.806;2023-07-31T20:40:49;16.63;;;7.20;;
20002;SDS011;10162;41.600;23.806;2023-07-31T20:43:17;9.60;;;6.80;;
20002;SDS011;10162;41.600;23.806;2023-07-31T20:45:45;7.83;;;6.83;;